Time;durP1;ratioP1;P1;durP2;ratioP2;P2;SDS_P1;SDS_P2;PMS_P1;PMS_P2;Temp;Humidity;BMP_temperature;BMP_pressure;BME280_temperature;BME280_humidity;BME280_pressure;Samples;Min_cycle;Max_cycle;Signal;HPM_P1;HPM_P2
2021/06/17 00:00:50;;;;;;;10.35;9.35;;;;;;;;;;1437139;41;20543;-82
2021/06/17 00:01:51;;;;;;;10.45;9.43;;;;;;;;;;1432950;41;20875;-81
2021/06/17 00:02:54;;;;;;;10.50;8.80;;;;;;;;;;1435357;41;20451;-81
2021/06/17 00:03:56;;;;;;;10.63;9.32;;;;;;;;;;1433245;41;20481;-80
2021/06/17 00:04:58;;;;;;;10.60;9.60;;;;;;;;;;1428088;41;20434;-82
2021/06/17 00:05:59;;;;;;;10.45;9.20;;;;;;;;;;1421847;41;20499;-79
2021/06/17 00:07:02;;;;;;;10.70;9.80;;;;;;;;;;1432210;41;20866;-80
2021/06/17 00:08:06;;;;;;;10.38;9.35;;;;;;;;;;1434784;41;20565;-81
2021/06/17 00:09:08;;;;;;;11.60;10.13;;;;;;;;;;1436006;41;20449;-80
2021/06/17 00:10:14;;;;;;;11.95;9.20;;;;;;;;;;1437920;41;20790;-82
2021/06/17 00:11:16;;;;;;;11.45;9.52;;;;;;;;;;1437566;41;20697;-82
2021/06/17 00:12:17;;;;;;;10.13;9.00;;;;;;;;;;1432930;41;20421;-81
2021/06/17 00:13:28;;;;;;;10.15;9.15;;;;;;;;;;1430175;41;21113;-79
2021/06/17 00:14:31;;;;;;;10.75;9.75;;;;;;;;;;1431018;41;20859;-81
2021/06/17 00:15:34;;;;;;;9.95;9.05;;;;;;;;;;1429210;41;20585;-81
2021/06/17 00:16:36;;;;;;;10.43;9.52;;;;;;;;;;1436159;41;20432;-83
2021/06/17 00:17:41;;;;;;;12.48;10.07;;;;;;;;;;1440613;41;20414;-81
2021/06/17 00:18:43;;;;;;;11.40;8.95;;;;;;;;;;1441441;41;20429;-81
2021/06/17 00:19:46;;;;;;;10.25;9.32;;;;;;;;;;1437919;41;20618;-80
2021/06/17 00:20:48;;;;;;;11.13;10.00;;;;;;;;;;1437550;41;20436;-78
2021/06/17 00:21:50;;;;;;;10.25;9.35;;;;;;;;;;1444061;41;20524;-81
2021/06/17 00:22:53;;;;;;;17.65;10.32;;;;;;;;;;1439034;41;20419;-81
2021/06/17 00:23:54;;;;;;;13.98;10.02;;;;;;;;;;1439340;41;20813;-79
2021/06/17 00:24:56;;;;;;;10.85;9.57;;;;;;;;;;1435544;41;20493;-79
2021/06/17 00:25:58;;;;;;;10.25;9.35;;;;;;;;;;1429974;41;20512;-81
2021/06/17 00:27:00;;;;;;;10.73;9.68;;;;;;;;;;1435985;41;20464;-80
2021/06/17 00:28:02;;;;;;;9.77;8.90;;;;;;;;;;1433623;41;20871;-80
2021/06/17 00:29:03;;;;;;;10.10;8.82;;;;;;;;;;1433926;41;20429;-80
2021/06/17 00:30:07;;;;;;;12.35;9.30;;;;;;;;;;1434882;41;20909;-80
2021/06/17 00:31:08;;;;;;;11.07;9.80;;;;;;;;;;1429317;41;20479;-79
2021/06/17 00:32:10;;;;;;;9.88;8.88;;;;;;;;;;1429450;41;20456;-81
2021/06/17 00:33:12;;;;;;;10.10;9.05;;;;;;;;;;1432895;41;20549;-82
2021/06/17 00:34:13;;;;;;;10.70;9.70;;;;;;;;;;1438161;41;20439;-81
2021/06/17 00:35:15;;;;;;;12.68;9.82;;;;;;;;;;1432961;41;20847;-81
2021/06/17 00:36:17;;;;;;;12.57;9.50;;;;;;;;;;1432691;41;20421;-82
2021/06/17 00:37:19;;;;;;;10.48;9.48;;;;;;;;;;1433367;41;20413;-80
2021/06/17 00:38:21;;;;;;;9.70;8.90;;;;;;;;;;1436287;41;20491;-79
2021/06/17 00:39:23;;;;;;;11.20;9.50;;;;;;;;;;1436259;41;20702;-82
2021/06/17 00:40:24;;;;;;;10.77;9.52;;;;;;;;;;1432696;41;20447;-81
2021/06/17 00:41:26;;;;;;;10.65;9.60;;;;;;;;;;1432869;41;20440;-82
2021/06/17 00:42:28;;;;;;;10.65;9.15;;;;;;;;;;1435273;41;20424;-80
2021/06/17 00:43:29;;;;;;;9.38;8.48;;;;;;;;;;1436180;41;20517;-80
2021/06/17 00:44:31;;;;;;;12.50;9.35;;;;;;;;;;1440798;41;20431;-80
2021/06/17 00:45:44;;;;;;;9.95;9.05;;;;;;;;;;1436792;41;20696;-82
2021/06/17 00:46:45;;;;;;;9.52;8.63;;;;;;;;;;1433034;41;20463;-79
2021/06/17 00:47:47;;;;;;;10.23;9.23;;;;;;;;;;1440932;41;20951;-81
2021/06/17 00:48:49;;;;;;;10.32;9.43;;;;;;;;;;1439684;41;21266;-82
2021/06/17 00:49:51;;;;;;;10.18;8.82;;;;;;;;;;1437021;41;20419;-79
2021/06/17 00:50:56;;;;;;;10.53;9.43;;;;;;;;;;1436905;41;20461;-80
2021/06/17 00:51:58;;;;;;;10.20;9.17;;;;;;;;;;1435557;41;20498;-82
2021/06/17 00:53:01;;;;;;;10.18;9.20;;;;;;;;;;1431501;41;20515;-79
2021/06/17 00:54:05;;;;;;;19.05;9.23;;;;;;;;;;1433062;41;20517;-79
2021/06/17 00:55:07;;;;;;;10.57;9.07;;;;;;;;;;1434774;41;20509;-79
2021/06/17 00:56:09;;;;;;;9.77;8.88;;;;;;;;;;1432273;41;20808;-81
2021/06/17 00:57:11;;;;;;;11.30;9.20;;;;;;;;;;1430359;41;20428;-80
2021/06/17 00:58:13;;;;;;;12.02;9.15;;;;;;;;;;1436814;41;20424;-81
2021/06/17 00:59:15;;;;;;;9.82;8.45;;;;;;;;;;1431428;41;22020;-81
2021/06/17 01:00:18;;;;;;;10.52;9.43;;;;;;;;;;1436806;41;20423;-79
2021/06/17 01:01:19;;;;;;;10.27;9.10;;;;;;;;;;1433514;41;20432;-81
2021/06/17 01:02:21;;;;;;;10.45;9.32;;;;;;;;;;1432832;41;20537;-81
2021/06/17 01:03:24;;;;;;;10.50;9.50;;;;;;;;;;1431367;41;20531;-81
2021/06/17 01:04:28;;;;;;;11.65;9.27;;;;;;;;;;1433851;41;20431;-81
2021/06/17 01:05:30;;;;;;;10.27;9.15;;;;;;;;;;1435668;41;20429;-82
2021/06/17 01:06:31;;;;;;;9.93;8.85;;;;;;;;;;1429060;41;20418;-80
2021/06/17 01:07:54;;;;;;;9.50;8.50;;;;;;;;;;1428147;41;20754;-80
2021/06/17 01:09:02;;;;;;;9.55;8.55;;;;;;;;;;1424146;41;20842;-81
2021/06/17 01:10:28;;;;;;;11.25;9.00;;;;;;;;;;1427471;41;20506;-82
2021/06/17 01:11:51;;;;;;;13.07;8.85;;;;;;;;;;1435898;41;20418;-81
2021/06/17 01:13:21;;;;;;;10.65;9.40;;;;;;;;;;1433625;41;20481;-80
2021/06/17 01:14:46;;;;;;;12.25;9.25;;;;;;;;;;1433916;41;20869;-80
2021/06/17 01:16:35;;;;;;;11.18;8.77;;;;;;;;;;1434930;41;20454;-80
2021/06/17 01:17:45;;;;;;;9.90;8.90;;;;;;;;;;1435601;41;20809;-81
2021/06/17 01:18:49;;;;;;;11.15;8.88;;;;;;;;;;1438389;41;20419;-80
2021/06/17 01:20:13;;;;;;;12.07;9.70;;;;;;;;;;1436827;41;20447;-81
2021/06/17 01:21:31;;;;;;;11.38;10.20;;;;;;;;;;1431282;41;20421;-80
2021/06/17 01:30:16;;;;;;;10.77;9.77;;;;;;;;;;1440025;41;20435;-81
2021/06/17 01:31:32;;;;;;;11.18;9.80;;;;;;;;;;1440088;41;20748;-81
2021/06/17 01:32:35;;;;;;;10.70;9.63;;;;;;;;;;1438419;41;20430;-79
2021/06/17 01:33:40;;;;;;;13.32;10.38;;;;;;;;;;1442721;41;20405;-82
2021/06/17 01:34:42;;;;;;;10.40;9.50;;;;;;;;;;1441102;41;21167;-80
2021/06/17 01:35:47;;;;;;;12.40;10.25;;;;;;;;;;1441796;41;21145;-81
2021/06/17 01:36:59;;;;;;;10.40;9.38;;;;;;;;;;1444654;41;20426;-81
2021/06/17 01:38:04;;;;;;;13.73;10.45;;;;;;;;;;1440376;41;20940;-79
2021/06/17 01:39:11;;;;;;;10.85;9.68;;;;;;;;;;1443573;41;20487;-81
2021/06/17 01:40:14;;;;;;;11.23;10.13;;;;;;;;;;1441284;41;20425;-81
2021/06/17 01:41:19;;;;;;;11.20;10.15;;;;;;;;;;1443726;41;20750;-80
2021/06/17 01:42:24;;;;;;;10.52;9.48;;;;;;;;;;1444802;41;20907;-80
2021/06/17 01:43:27;;;;;;;10.95;9.85;;;;;;;;;;1440238;41;20435;-80
2021/06/17 01:44:29;;;;;;;10.50;9.45;;;;;;;;;;1440751;41;20506;-79
2021/06/17 01:45:31;;;;;;;11.52;9.90;;;;;;;;;;1445278;41;20422;-81
2021/06/17 01:46:34;;;;;;;14.40;10.77;;;;;;;;;;1438520;41;20417;-80
2021/06/17 01:47:36;;;;;;;11.13;10.13;;;;;;;;;;1444224;41;20413;-81
2021/06/17 01:48:40;;;;;;;10.85;9.95;;;;;;;;;;1442537;41;20438;-81
2021/06/17 01:49:43;;;;;;;10.98;9.98;;;;;;;;;;1437758;41;20412;-81
2021/06/17 01:50:48;;;;;;;12.95;11.18;;;;;;;;;;1439547;41;20458;-81
2021/06/17 01:51:51;;;;;;;12.77;10.60;;;;;;;;;;1442379;41;20458;-81
2021/06/17 01:52:55;;;;;;;11.40;10.27;;;;;;;;;;1438188;41;20910;-80
2021/06/17 01:53:56;;;;;;;12.02;10.82;;;;;;;;;;1441089;41;20419;-80
2021/06/17 01:55:00;;;;;;;11.98;10.85;;;;;;;;;;1443257;41;20518;-80
2021/06/17 01:56:02;;;;;;;11.57;10.57;;;;;;;;;;1447073;41;20427;-79
2021/06/17 01:57:04;;;;;;;12.30;11.00;;;;;;;;;;1444352;41;20803;-81
2021/06/17 01:58:10;;;;;;;12.85;10.70;;;;;;;;;;1440409;41;20404;-77
2021/06/17 01:59:12;;;;;;;12.20;10.98;;;;;;;;;;1438112;41;20436;-79
2021/06/17 02:00:14;;;;;;;12.23;10.18;;;;;;;;;;1441888;41;20554;-80
2021/06/17 02:01:17;;;;;;;13.43;10.70;;;;;;;;;;1430357;41;20427;-80
2021/06/17 02:02:20;;;;;;;13.82;10.85;;;;;;;;;;1433305;41;20437;-80
2021/06/17 02:03:24;;;;;;;12.10;10.90;;;;;;;;;;1434749;41;20431;-81
2021/06/17 02:04:27;;;;;;;11.40;10.20;;;;;;;;;;1438262;41;20625;-80
2021/06/17 02:05:30;;;;;;;11.90;10.57;;;;;;;;;;1444804;41;20440;-82
2021/06/17 02:06:33;;;;;;;12.88;11.57;;;;;;;;;;1438231;41;20484;-82
2021/06/17 02:07:39;;;;;;;12.65;11.00;;;;;;;;;;1437346;41;20458;-82
2021/06/17 02:08:45;;;;;;;13.02;11.05;;;;;;;;;;1436369;41;20953;-84
2021/06/17 02:09:49;;;;;;;12.43;11.00;;;;;;;;;;1438005;41;20469;-81
2021/06/17 02:10:51;;;;;;;12.27;10.93;;;;;;;;;;1437399;41;20415;-81
2021/06/17 02:11:53;;;;;;;15.23;11.30;;;;;;;;;;1437967;41;21186;-80
2021/06/17 02:12:56;;;;;;;14.18;11.15;;;;;;;;;;1442140;41;20421;-84
2021/06/17 02:13:59;;;;;;;16.17;11.43;;;;;;;;;;1442631;41;20441;-82
2021/06/17 02:15:01;;;;;;;12.20;11.00;;;;;;;;;;1447061;41;20438;-80
2021/06/17 02:16:04;;;;;;;12.25;11.05;;;;;;;;;;1443048;41;20439;-83
2021/06/17 02:17:07;;;;;;;13.50;11.95;;;;;;;;;;1442619;41;20425;-81
2021/06/17 02:18:09;;;;;;;13.55;12.05;;;;;;;;;;1442229;41;20420;-81
2021/06/17 02:19:14;;;;;;;13.03;10.87;;;;;;;;;;1437772;41;20482;-81
2021/06/17 02:20:19;;;;;;;13.02;11.45;;;;;;;;;;1444476;41;20432;-80
2021/06/17 02:21:21;;;;;;;12.45;11.25;;;;;;;;;;1446930;41;20436;-81
2021/06/17 02:22:23;;;;;;;13.40;12.10;;;;;;;;;;1446138;41;20421;-83
2021/06/17 02:23:29;;;;;;;13.68;12.27;;;;;;;;;;1440106;41;20435;-82
2021/06/17 02:24:33;;;;;;;13.80;12.40;;;;;;;;;;1437015;41;20431;-82
2021/06/17 02:25:35;;;;;;;13.30;12.02;;;;;;;;;;1438436;41;21075;-81
2021/06/17 02:26:41;;;;;;;13.70;11.88;;;;;;;;;;1441730;41;20422;-82
2021/06/17 02:27:47;;;;;;;16.23;12.68;;;;;;;;;;1436734;41;20948;-81
2021/06/17 02:28:50;;;;;;;13.85;12.55;;;;;;;;;;1434104;41;20469;-82
2021/06/17 02:29:53;;;;;;;13.50;12.27;;;;;;;;;;1436612;41;20445;-80
2021/06/17 02:31:00;;;;;;;14.98;12.27;;;;;;;;;;1427224;41;20432;-82
2021/06/17 02:32:03;;;;;;;14.02;12.57;;;;;;;;;;1427559;41;20449;-83
2021/06/17 02:33:08;;;;;;;13.07;11.77;;;;;;;;;;1437878;41;20502;-82
2021/06/17 02:34:11;;;;;;;12.68;11.57;;;;;;;;;;1436198;41;20408;-81
2021/06/17 02:35:14;;;;;;;16.17;12.63;;;;;;;;;;1436501;41;20476;-80
2021/06/17 02:36:22;;;;;;;15.95;12.93;;;;;;;;;;1430096;41;20406;-82
2021/06/17 02:37:25;;;;;;;15.18;12.25;;;;;;;;;;1433977;41;20469;-82
2021/06/17 02:38:32;;;;;;;13.88;11.90;;;;;;;;;;1443316;41;20431;-82
2021/06/17 02:39:34;;;;;;;14.18;12.68;;;;;;;;;;1438326;41;21857;-80
2021/06/17 02:40:45;;;;;;;13.98;12.57;;;;;;;;;;1441487;41;20501;-81
2021/06/17 02:41:52;;;;;;;14.40;13.00;;;;;;;;;;1445936;41;20412;-82
2021/06/17 02:42:56;;;;;;;13.80;12.32;;;;;;;;;;1441091;41;20442;-81
2021/06/17 02:44:00;;;;;;;14.90;12.80;;;;;;;;;;1440511;41;20422;-82
2021/06/17 02:45:03;;;;;;;15.02;13.23;;;;;;;;;;1440894;41;20470;-81
2021/06/17 02:46:04;;;;;;;16.55;12.57;;;;;;;;;;1442159;41;20804;-81
2021/06/17 02:47:06;;;;;;;14.32;12.93;;;;;;;;;;1435857;41;20444;-82
2021/06/17 02:48:09;;;;;;;14.48;13.25;;;;;;;;;;1435051;41;20673;-81
2021/06/17 02:49:12;;;;;;;14.10;12.73;;;;;;;;;;1437200;41;20552;-82
2021/06/17 02:50:17;;;;;;;14.70;12.97;;;;;;;;;;1436780;41;20423;-80
2021/06/17 02:51:19;;;;;;;14.57;13.07;;;;;;;;;;1435577;41;20465;-83
2021/06/17 02:52:21;;;;;;;14.38;12.93;;;;;;;;;;1447383;41;20439;-82
2021/06/17 02:53:23;;;;;;;14.25;12.57;;;;;;;;;;1441446;41;20453;-82
2021/06/17 02:54:24;;;;;;;15.02;13.43;;;;;;;;;;1433677;41;20496;-80
2021/06/17 02:55:26;;;;;;;14.77;13.30;;;;;;;;;;1440588;41;20416;-80
2021/06/17 02:56:54;;;;;;;15.18;13.70;;;;;;;;;;1448525;41;20512;-80
2021/06/17 02:58:21;;;;;;;18.40;13.60;;;;;;;;;;1448529;41;20417;-78
2021/06/17 02:59:34;;;;;;;15.38;13.13;;;;;;;;;;1445931;41;20509;-80
2021/06/17 03:00:42;;;;;;;15.88;13.70;;;;;;;;;;1438288;41;20493;-81
2021/06/17 03:02:11;;;;;;;15.45;14.05;;;;;;;;;;1442432;41;21843;-81
2021/06/17 03:03:17;;;;;;;16.35;14.65;;;;;;;;;;1443886;41;20425;-80
2021/06/17 03:04:28;;;;;;;14.75;13.32;;;;;;;;;;1445529;41;20439;-80
2021/06/17 03:05:52;;;;;;;15.13;13.52;;;;;;;;;;1441466;41;20402;-81
2021/06/17 03:06:56;;;;;;;15.52;13.82;;;;;;;;;;1443480;41;20424;-80
2021/06/17 03:08:15;;;;;;;14.68;13.20;;;;;;;;;;1441824;41;20811;-80
2021/06/17 03:09:25;;;;;;;17.08;14.70;;;;;;;;;;1442795;41;20877;-82
2021/06/17 03:10:30;;;;;;;16.15;14.07;;;;;;;;;;1441079;41;21090;-81
2021/06/17 03:11:34;;;;;;;15.35;13.77;;;;;;;;;;1440386;41;20406;-80
2021/06/17 03:12:38;;;;;;;18.98;14.35;;;;;;;;;;1437262;41;20777;-81
2021/06/17 03:13:43;;;;;;;15.50;13.95;;;;;;;;;;1437426;41;20419;-81
2021/06/17 03:14:48;;;;;;;16.02;14.30;;;;;;;;;;1441231;41;20532;-83
2021/06/17 03:15:51;;;;;;;15.57;14.02;;;;;;;;;;1437717;41;20464;-81
2021/06/17 03:16:56;;;;;;;15.40;13.48;;;;;;;;;;1437880;41;20418;-80
2021/06/17 03:18:01;;;;;;;15.30;13.90;;;;;;;;;;1442017;41;20461;-81
2021/06/17 03:19:07;;;;;;;16.65;14.90;;;;;;;;;;1436144;41;20434;-81
2021/06/17 03:20:11;;;;;;;15.77;14.20;;;;;;;;;;1437244;41;20419;-81
2021/06/17 03:21:13;;;;;;;15.35;13.75;;;;;;;;;;1442320;41;20428;-81
2021/06/17 03:22:16;;;;;;;16.30;13.63;;;;;;;;;;1432630;41;20913;-81
2021/06/17 03:23:20;;;;;;;16.33;14.02;;;;;;;;;;1433707;41;20560;-80
2021/06/17 03:24:27;;;;;;;15.10;13.57;;;;;;;;;;1435953;41;20443;-84
2021/06/17 03:25:30;;;;;;;15.38;13.75;;;;;;;;;;1434710;41;20418;-82
2021/06/17 03:26:37;;;;;;;17.45;13.52;;;;;;;;;;1437321;41;20419;-80
2021/06/17 03:27:41;;;;;;;14.90;13.10;;;;;;;;;;1441588;41;20429;-81
2021/06/17 03:28:45;;;;;;;14.85;13.35;;;;;;;;;;1443527;41;20670;-80
2021/06/17 03:29:49;;;;;;;15.77;13.90;;;;;;;;;;1435943;41;20490;-82
2021/06/17 03:30:52;;;;;;;14.38;13.02;;;;;;;;;;1437665;41;20882;-79
2021/06/17 03:31:57;;;;;;;15.63;13.93;;;;;;;;;;1434462;41;20458;-80
2021/06/17 03:33:01;;;;;;;18.03;13.40;;;;;;;;;;1437480;41;20584;-83
2021/06/17 03:34:03;;;;;;;15.10;13.73;;;;;;;;;;1435122;41;20433;-80
2021/06/17 03:35:06;;;;;;;16.37;14.13;;;;;;;;;;1433127;41;20457;-80
2021/06/17 03:36:10;;;;;;;15.45;13.45;;;;;;;;;;1428651;41;20425;-81
2021/06/17 03:37:15;;;;;;;16.42;13.35;;;;;;;;;;1436965;41;20515;-82
2021/06/17 03:38:17;;;;;;;15.65;14.10;;;;;;;;;;1438536;41;20431;-81
2021/06/17 03:39:21;;;;;;;16.75;14.35;;;;;;;;;;1443839;41;20552;-81
2021/06/17 03:40:25;;;;;;;16.33;14.73;;;;;;;;;;1439140;41;20561;-80
2021/06/17 03:41:29;;;;;;;20.15;14.57;;;;;;;;;;1441071;41;21152;-80
2021/06/17 03:42:33;;;;;;;16.55;12.68;;;;;;;;;;1441432;41;20497;-80
2021/06/17 03:43:36;;;;;;;15.00;13.57;;;;;;;;;;1437777;41;20702;-80
2021/06/17 03:44:38;;;;;;;15.73;13.38;;;;;;;;;;1433389;41;20451;-80
2021/06/17 03:45:43;;;;;;;17.00;13.90;;;;;;;;;;1437008;41;20451;-81
2021/06/17 03:46:46;;;;;;;14.10;12.77;;;;;;;;;;1441562;41;20477;-82
2021/06/17 03:47:50;;;;;;;14.85;12.80;;;;;;;;;;1441359;41;20424;-81
2021/06/17 03:48:54;;;;;;;15.43;13.82;;;;;;;;;;1441519;41;20547;-81
2021/06/17 03:49:57;;;;;;;14.43;13.00;;;;;;;;;;1441649;41;20445;-80
2021/06/17 03:51:00;;;;;;;14.35;12.88;;;;;;;;;;1437685;41;20750;-80
2021/06/17 03:52:03;;;;;;;13.60;12.45;;;;;;;;;;1436584;41;20442;-82
2021/06/17 03:53:05;;;;;;;14.10;12.45;;;;;;;;;;1436939;41;20620;-80
2021/06/17 03:54:08;;;;;;;14.02;12.73;;;;;;;;;;1436474;41;20584;-80
2021/06/17 03:55:12;;;;;;;14.93;12.63;;;;;;;;;;1437178;41;20779;-80
2021/06/17 03:56:16;;;;;;;14.00;12.60;;;;;;;;;;1439751;41;20517;-82
2021/06/17 03:57:22;;;;;;;14.40;11.98;;;;;;;;;;1441187;41;21317;-81
2021/06/17 03:58:25;;;;;;;13.50;12.10;;;;;;;;;;1439055;41;20538;-79
2021/06/17 03:59:31;;;;;;;13.18;11.73;;;;;;;;;;1433866;41;20460;-81
2021/06/17 04:00:33;;;;;;;14.32;11.65;;;;;;;;;;1441246;41;20429;-81
2021/06/17 04:01:35;;;;;;;13.30;12.02;;;;;;;;;;1444753;41;20683;-81
2021/06/17 04:02:37;;;;;;;12.80;11.50;;;;;;;;;;1436963;41;20427;-80
2021/06/17 04:03:39;;;;;;;12.88;11.13;;;;;;;;;;1432501;41;20420;-81
2021/06/17 04:04:41;;;;;;;12.30;11.20;;;;;;;;;;1436615;41;20693;-82
2021/06/17 04:05:42;;;;;;;13.05;11.75;;;;;;;;;;1437755;41;20439;-81
2021/06/17 04:07:01;;;;;;;14.25;11.15;;;;;;;;;;1437200;41;20420;-80
2021/06/17 04:08:07;;;;;;;13.98;10.50;;;;;;;;;;1437889;41;20519;-81
2021/06/17 04:09:09;;;;;;;11.85;10.70;;;;;;;;;;1444686;41;20685;-83
2021/06/17 04:10:14;;;;;;;12.70;11.50;;;;;;;;;;1434603;41;20470;-80
2021/06/17 04:11:18;;;;;;;12.18;10.98;;;;;;;;;;1428840;41;20447;-81
2021/06/17 04:12:27;;;;;;;13.23;11.20;;;;;;;;;;1436924;41;20412;-81
2021/06/17 04:13:33;;;;;;;11.40;10.23;;;;;;;;;;1439388;41;20903;-81
2021/06/17 04:14:38;;;;;;;11.30;10.10;;;;;;;;;;1444315;41;20475;-80
2021/06/17 04:15:42;;;;;;;11.23;10.23;;;;;;;;;;1443657;41;20426;-82
2021/06/17 04:16:46;;;;;;;12.17;10.90;;;;;;;;;;1441463;41;20430;-83
2021/06/17 04:17:54;;;;;;;11.02;10.02;;;;;;;;;;1444199;41;20566;-80
2021/06/17 04:18:58;;;;;;;11.40;10.23;;;;;;;;;;1445362;41;21001;-82
2021/06/17 04:20:00;;;;;;;10.88;9.80;;;;;;;;;;1440534;41;20512;-80
2021/06/17 04:21:04;;;;;;;11.30;10.10;;;;;;;;;;1440684;41;20526;-82
2021/06/17 04:22:08;;;;;;;12.10;10.13;;;;;;;;;;1442531;41;21080;-82
2021/06/17 04:23:14;;;;;;;11.40;9.77;;;;;;;;;;1438221;41;20795;-81
2021/06/17 04:24:22;;;;;;;13.75;9.93;;;;;;;;;;1434231;41;20432;-80
2021/06/17 04:25:24;;;;;;;10.88;9.73;;;;;;;;;;1434043;41;20449;-80
2021/06/17 04:26:28;;;;;;;12.63;10.30;;;;;;;;;;1437597;41;20478;-79
2021/06/17 04:27:30;;;;;;;11.05;9.95;;;;;;;;;;1438807;41;20906;-81
2021/06/17 04:28:33;;;;;;;10.85;9.70;;;;;;;;;;1439413;41;20440;-79
2021/06/17 04:29:39;;;;;;;10.23;9.32;;;;;;;;;;1438183;41;20459;-80
2021/06/17 04:30:44;;;;;;;11.93;10.18;;;;;;;;;;1443214;41;20455;-83
2021/06/17 04:31:49;;;;;;;10.35;9.43;;;;;;;;;;1444665;41;20834;-81
2021/06/17 04:32:52;;;;;;;9.98;9.07;;;;;;;;;;1437581;41;20451;-81
2021/06/17 04:37:26;;;;;;;9.77;8.63;;;;;;;;;;1443735;41;20453;-82
2021/06/17 04:38:29;;;;;;;8.63;7.88;;;;;;;;;;1437893;41;20451;-82
2021/06/17 04:39:31;;;;;;;10.35;8.68;;;;;;;;;;1436023;41;20578;-81
2021/06/17 04:40:34;;;;;;;9.73;8.20;;;;;;;;;;1436454;41;20475;-80
2021/06/17 04:41:39;;;;;;;8.85;7.97;;;;;;;;;;1436421;41;20453;-81
2021/06/17 04:42:42;;;;;;;9.90;8.35;;;;;;;;;;1433886;41;20728;-81
2021/06/17 04:43:45;;;;;;;8.90;8.10;;;;;;;;;;1433889;41;20736;-81
2021/06/17 04:44:47;;;;;;;10.75;7.93;;;;;;;;;;1431655;41;20830;-79
2021/06/17 04:45:53;;;;;;;10.50;8.23;;;;;;;;;;1436137;41;20516;-80
2021/06/17 04:47:02;;;;;;;8.70;7.85;;;;;;;;;;1438605;41;20427;-81
2021/06/17 04:48:08;;;;;;;10.15;7.55;;;;;;;;;;1434927;41;20431;-80
2021/06/17 04:49:13;;;;;;;8.25;7.25;;;;;;;;;;1432942;41;20444;-81
2021/06/17 04:50:17;;;;;;;9.43;8.60;;;;;;;;;;1436752;41;20526;-81
2021/06/17 04:51:19;;;;;;;8.75;7.50;;;;;;;;;;1440862;41;20426;-80
2021/06/17 04:52:41;;;;;;;8.70;7.70;;;;;;;;;;1443279;41;20452;-79
2021/06/17 04:53:43;;;;;;;12.73;8.35;;;;;;;;;;1438784;41;20434;-81
2021/06/17 04:54:45;;;;;;;8.63;7.78;;;;;;;;;;1432815;41;20451;-82
2021/06/17 04:55:50;;;;;;;11.85;8.25;;;;;;;;;;1429658;41;20722;-81
2021/06/17 04:56:51;;;;;;;7.43;6.40;;;;;;;;;;1436082;41;20447;-80
2021/06/17 04:57:54;;;;;;;9.45;7.93;;;;;;;;;;1441071;41;20534;-81
2021/06/17 04:58:57;;;;;;;7.85;7.15;;;;;;;;;;1441092;41;20565;-80
2021/06/17 05:00:03;;;;;;;9.20;6.75;;;;;;;;;;1439612;41;20430;-82
2021/06/17 05:01:05;;;;;;;10.65;7.55;;;;;;;;;;1438564;41;20435;-80
2021/06/17 05:02:07;;;;;;;10.52;7.07;;;;;;;;;;1440204;41;20463;-80
2021/06/17 05:03:09;;;;;;;7.70;6.93;;;;;;;;;;1437808;41;20498;-80
2021/06/17 05:04:11;;;;;;;8.95;6.80;;;;;;;;;;1435336;41;20877;-80
2021/06/17 05:05:13;;;;;;;7.60;6.30;;;;;;;;;;1437261;41;20773;-80
2021/06/17 05:06:18;;;;;;;7.60;6.82;;;;;;;;;;1435062;41;20440;-80
2021/06/17 05:10:52;;;;;;;7.00;6.35;;;;;;;;;;1444078;41;20406;-82
2021/06/17 05:11:54;;;;;;;9.90;6.85;;;;;;;;;;1441686;41;20429;-84
2021/06/17 05:12:59;;;;;;;7.28;6.57;;;;;;;;;;1442577;41;20446;-80
2021/06/17 05:14:01;;;;;;;7.43;6.68;;;;;;;;;;1439044;41;20491;-81
2021/06/17 05:15:04;;;;;;;9.13;6.38;;;;;;;;;;1437103;41;20668;-80
2021/06/17 05:16:06;;;;;;;7.43;6.38;;;;;;;;;;1442731;41;20517;-83
2021/06/17 05:17:08;;;;;;;7.00;6.20;;;;;;;;;;1438079;41;20423;-80
2021/06/17 05:18:09;;;;;;;8.07;6.32;;;;;;;;;;1437397;41;20896;-80
2021/06/17 05:19:11;;;;;;;7.82;6.38;;;;;;;;;;1437949;41;20438;-81
2021/06/17 05:20:14;;;;;;;8.20;6.55;;;;;;;;;;1436007;41;20427;-81
2021/06/17 05:21:16;;;;;;;10.73;6.57;;;;;;;;;;1438703;41;20430;-80
2021/06/17 05:22:18;;;;;;;9.27;5.70;;;;;;;;;;1441455;41;20476;-80
2021/06/17 05:23:22;;;;;;;6.93;6.30;;;;;;;;;;1438148;41;20459;-82
2021/06/17 05:24:24;;;;;;;9.65;6.20;;;;;;;;;;1441366;41;20432;-81
2021/06/17 05:25:26;;;;;;;7.97;6.35;;;;;;;;;;1439976;41;20457;-80
2021/06/17 05:26:28;;;;;;;6.78;6.18;;;;;;;;;;1444070;41;21137;-80
2021/06/17 05:27:31;;;;;;;8.75;6.07;;;;;;;;;;1441550;41;20424;-82
2021/06/17 05:28:32;;;;;;;9.40;6.13;;;;;;;;;;1434075;41;20481;-81
2021/06/17 05:29:34;;;;;;;7.93;6.00;;;;;;;;;;1437709;41;20420;-82
2021/06/17 05:30:36;;;;;;;5.97;5.35;;;;;;;;;;1444411;41;20736;-83
2021/06/17 05:31:37;;;;;;;9.60;5.68;;;;;;;;;;1445208;41;20432;-80
2021/06/17 05:32:42;;;;;;;7.43;6.05;;;;;;;;;;1446878;41;20515;-80
2021/06/17 05:33:46;;;;;;;7.05;5.25;;;;;;;;;;1446090;41;20434;-84
2021/06/17 05:34:47;;;;;;;5.63;5.10;;;;;;;;;;1440379;41;20447;-83
2021/06/17 05:35:49;;;;;;;8.98;5.80;;;;;;;;;;1438151;41;20429;-81
2021/06/17 05:36:51;;;;;;;6.97;5.90;;;;;;;;;;1437767;41;20497;-81
2021/06/17 05:37:55;;;;;;;6.80;5.63;;;;;;;;;;1439123;41;20457;-80
2021/06/17 05:38:56;;;;;;;6.65;5.15;;;;;;;;;;1439550;41;20491;-82
2021/06/17 05:40:00;;;;;;;7.30;5.35;;;;;;;;;;1442523;41;20430;-81
2021/06/17 05:41:02;;;;;;;8.07;5.20;;;;;;;;;;1436775;41;20466;-81
2021/06/17 05:42:04;;;;;;;7.03;5.53;;;;;;;;;;1438044;41;20486;-81
2021/06/17 05:43:06;;;;;;;7.45;5.30;;;;;;;;;;1433726;41;20474;-80
2021/06/17 05:44:12;;;;;;;7.03;4.70;;;;;;;;;;1438752;41;20412;-80
2021/06/17 05:45:14;;;;;;;8.55;5.28;;;;;;;;;;1443856;41;20421;-82
2021/06/17 05:46:16;;;;;;;6.35;4.85;;;;;;;;;;1441624;41;20433;-81
2021/06/17 05:47:19;;;;;;;8.25;5.18;;;;;;;;;;1437049;41;20433;-84
2021/06/17 05:48:21;;;;;;;5.43;4.93;;;;;;;;;;1438285;41;20796;-81
2021/06/17 05:49:25;;;;;;;6.37;5.07;;;;;;;;;;1436550;41;20499;-81
2021/06/17 05:50:27;;;;;;;7.18;4.93;;;;;;;;;;1435026;41;20425;-81
2021/06/17 05:51:31;;;;;;;5.80;5.17;;;;;;;;;;1434405;41;20409;-80
2021/06/17 05:52:35;;;;;;;6.00;4.60;;;;;;;;;;1438108;41;20470;-83
2021/06/17 05:53:37;;;;;;;6.88;4.45;;;;;;;;;;1431925;41;20442;-80
2021/06/17 05:54:38;;;;;;;6.43;4.57;;;;;;;;;;1430972;41;20438;-82
2021/06/17 05:55:40;;;;;;;6.30;4.32;;;;;;;;;;1442460;41;20436;-83
2021/06/17 05:56:42;;;;;;;5.68;4.25;;;;;;;;;;1446124;41;20436;-84
2021/06/17 05:57:45;;;;;;;7.60;4.70;;;;;;;;;;1441098;41;20699;-84
2021/06/17 05:58:47;;;;;;;7.00;4.25;;;;;;;;;;1441812;41;20731;-82
2021/06/17 05:59:50;;;;;;;4.82;4.32;;;;;;;;;;1440811;41;20422;-81
2021/06/17 06:00:52;;;;;;;6.82;5.30;;;;;;;;;;1439560;41;20742;-79
2021/06/17 06:01:53;;;;;;;4.45;4.00;;;;;;;;;;1434402;41;20948;-78
2021/06/17 06:02:56;;;;;;;5.18;3.70;;;;;;;;;;1437882;41;20486;-84
2021/06/17 06:03:58;;;;;;;5.30;4.20;;;;;;;;;;1436838;41;20425;-84
2021/06/17 06:05:08;;;;;;;7.65;5.10;;;;;;;;;;1445193;41;20514;-86
2021/06/17 06:06:11;;;;;;;5.20;4.15;;;;;;;;;;1444311;41;21423;-86
2021/06/17 06:07:16;;;;;;;4.30;3.90;;;;;;;;;;1436476;41;20934;-84
2021/06/17 06:08:23;;;;;;;8.45;4.80;;;;;;;;;;1435712;41;20801;-81
2021/06/17 06:09:25;;;;;;;5.77;3.67;;;;;;;;;;1441923;41;20421;-77
2021/06/17 06:10:29;;;;;;;8.60;4.35;;;;;;;;;;1439607;41;20429;-83
2021/06/17 06:11:33;;;;;;;6.87;4.07;;;;;;;;;;1435911;41;20413;-79
2021/06/17 06:12:36;;;;;;;5.15;4.30;;;;;;;;;;1442668;41;20417;-78
2021/06/17 06:13:38;;;;;;;5.82;4.28;;;;;;;;;;1443629;41;20493;-77
2021/06/17 06:14:40;;;;;;;4.85;4.25;;;;;;;;;;1441891;41;20757;-80
2021/06/17 06:15:46;;;;;;;6.38;3.63;;;;;;;;;;1443560;41;20420;-82
2021/06/17 06:16:50;;;;;;;5.93;3.88;;;;;;;;;;1446934;41;20416;-78
2021/06/17 06:17:52;;;;;;;7.60;3.95;;;;;;;;;;1446098;41;20549;-76
2021/06/17 06:18:53;;;;;;;7.07;3.97;;;;;;;;;;1438878;41;20430;-79
2021/06/17 06:19:55;;;;;;;5.72;4.00;;;;;;;;;;1439020;41;20411;-78
2021/06/17 06:20:58;;;;;;;6.20;3.88;;;;;;;;;;1446006;41;20435;-79
2021/06/17 06:22:00;;;;;;;5.03;3.88;;;;;;;;;;1438229;41;20455;-79
2021/06/17 06:23:02;;;;;;;5.63;3.80;;;;;;;;;;1439376;41;20434;-78
2021/06/17 06:24:04;;;;;;;7.13;4.35;;;;;;;;;;1438482;41;20431;-79
2021/06/17 06:25:06;;;;;;;6.47;4.22;;;;;;;;;;1438643;41;20988;-79
2021/06/17 06:26:08;;;;;;;7.60;3.55;;;;;;;;;;1436106;41;20416;-79
2021/06/17 06:27:10;;;;;;;8.40;4.00;;;;;;;;;;1431201;41;20522;-77
2021/06/17 06:28:12;;;;;;;6.88;3.80;;;;;;;;;;1437697;41;20799;-81
2021/06/17 06:29:14;;;;;;;5.97;4.40;;;;;;;;;;1439478;41;20524;-77
2021/06/17 06:30:16;;;;;;;5.68;4.18;;;;;;;;;;1437565;41;20468;-76
2021/06/17 06:31:18;;;;;;;6.63;4.35;;;;;;;;;;1439456;41;20440;-76
2021/06/17 06:32:19;;;;;;;8.20;4.38;;;;;;;;;;1442217;41;20461;-77
2021/06/17 06:33:22;;;;;;;3.90;3.60;;;;;;;;;;1443591;41;20551;-80
2021/06/17 06:34:24;;;;;;;5.47;3.55;;;;;;;;;;1440944;41;20440;-77